createdAt,value
2022-08-14T00:00:32.280Z,100120
2022-08-14T00:02:32.545Z,100120
2022-08-14T00:04:42.390Z,100120
2022-08-14T00:06:33.223Z,100120
2022-08-14T00:08:44.457Z,100120
2022-08-14T00:10:50.403Z,100120
2022-08-14T00:12:39.200Z,100120
2022-08-14T00:14:34.619Z,100120
2022-08-14T00:16:41.434Z,100120
2022-08-14T00:19:06.185Z,100120
2022-08-14T00:20:42.884Z,100120
2022-08-14T00:22:56.629Z,100120
2022-08-14T00:24:35.837Z,100120
2022-08-14T00:26:36.067Z,100120
2022-08-14T00:28:36.909Z,100120
2022-08-14T00:30:37.123Z,100120
2022-08-14T00:32:52.565Z,100120
2022-08-14T00:34:46.886Z,100120
2022-08-14T00:36:49.543Z,100120
2022-08-14T00:38:38.500Z,100120
2022-08-14T00:40:38.243Z,100120
2022-08-14T00:42:55.393Z,100120
2022-08-14T00:44:39.148Z,100120
2022-08-14T00:46:39.227Z,100120
2022-08-14T00:48:39.444Z,100120
2022-08-14T00:50:39.710Z,100120
2022-08-14T00:52:40.644Z,100120
2022-08-14T00:54:40.910Z,100120
2022-08-14T00:56:40.614Z,100120
2022-08-14T00:58:48.238Z,100120
2022-08-14T01:00:47.623Z,100120
2022-08-14T01:02:44.114Z,100120
2022-08-14T01:04:53.974Z,100120
2022-08-14T01:06:42.465Z,100120
2022-08-14T01:08:51.934Z,100120
2022-08-14T01:10:43.503Z,100120
2022-08-14T01:12:44.291Z,100120
2022-08-14T01:14:43.388Z,100110
2022-08-14T01:16:43.694Z,100110
2022-08-14T01:18:43.941Z,100110
2022-08-14T01:20:44.801Z,100110
2022-08-14T01:22:44.866Z,100110
2022-08-14T01:24:45.042Z,100110
2022-08-14T01:26:50.591Z,100110
2022-08-14T01:28:56.569Z,100110
2022-08-14T01:30:45.922Z,100110
2022-08-14T01:32:51.198Z,100110
2022-08-14T01:35:17.300Z,100110
2022-08-14T01:36:46.898Z,100110
2022-08-14T01:38:49.023Z,100110
2022-08-14T01:40:47.392Z,100110
2022-08-14T01:42:47.684Z,100110
2022-08-14T01:44:49.982Z,100110
2022-08-14T01:46:48.430Z,100110
2022-08-14T01:48:50.345Z,100110
2022-08-14T01:50:48.936Z,100110
2022-08-14T01:52:58.838Z,100110
2022-08-14T01:54:58.474Z,100110
2022-08-14T01:56:55.600Z,100110
2022-08-14T01:58:57.189Z,100110
2022-08-14T02:00:52.559Z,100110
2022-08-14T02:02:52.730Z,100110
2022-08-14T02:04:55.171Z,100110
2022-08-14T02:06:51.826Z,100110
2022-08-14T02:08:52.999Z,100110
2022-08-14T02:10:53.441Z,100110
2022-08-14T02:12:56.856Z,100110
2022-08-14T02:15:00.738Z,100120
2022-08-14T02:16:54.212Z,100120
2022-08-14T02:18:55.233Z,100120
2022-08-14T02:20:53.244Z,100120
2022-08-14T02:22:54.748Z,100120
2022-08-14T02:24:53.827Z,100120
2022-08-14T02:26:58.623Z,100120
2022-08-14T02:28:59.425Z,100120
2022-08-14T02:30:54.696Z,100120
2022-08-14T02:32:54.954Z,100120
2022-08-14T02:34:55.243Z,100120
2022-08-14T02:37:03.902Z,100120
2022-08-14T02:38:56.030Z,100120
2022-08-14T02:40:56.215Z,100120
2022-08-14T02:42:57.598Z,100120
2022-08-14T02:44:56.784Z,100120
2022-08-14T02:47:01.226Z,100130
2022-08-14T02:49:01.293Z,100130
2022-08-14T02:51:00.513Z,100130
2022-08-14T02:53:03.010Z,100140
2022-08-14T02:54:58.244Z,100140
2022-08-14T02:57:15.982Z,100140
2022-08-14T02:59:00.546Z,100140
2022-08-14T03:01:01.155Z,100140
2022-08-14T03:02:59.891Z,100140
2022-08-14T03:04:59.773Z,100140
2022-08-14T03:07:07.538Z,100140
2022-08-14T03:09:00.403Z,100140
2022-08-14T03:11:02.114Z,100140
2022-08-14T03:13:01.221Z,100140
2022-08-14T03:15:03.388Z,100140
2022-08-14T03:17:01.563Z,100140
2022-08-14T03:19:03.870Z,100140
2022-08-14T03:21:05.580Z,100140
2022-08-14T03:23:04.592Z,100140
2022-08-14T03:25:03.653Z,100140
2022-08-14T03:27:03.937Z,100140
2022-08-14T03:29:03.952Z,100140
2022-08-14T03:31:04.221Z,100140
2022-08-14T03:33:05.128Z,100140
2022-08-14T03:35:08.889Z,100140
2022-08-14T03:37:37.814Z,100140
2022-08-14T03:39:12.602Z,100140
2022-08-14T03:41:05.831Z,100140
2022-08-14T03:43:07.162Z,100140
2022-08-14T03:45:18.496Z,100140
2022-08-14T03:47:08.206Z,100140
2022-08-14T03:49:07.933Z,100140
2022-08-14T03:51:10.184Z,100140
2022-08-14T03:53:08.314Z,100140
2022-08-14T03:55:11.163Z,100140
2022-08-14T03:57:09.071Z,100140
2022-08-14T03:59:10.301Z,100140
2022-08-14T04:01:10.212Z,100140
2022-08-14T04:03:13.286Z,100140
2022-08-14T04:05:12.655Z,100140
2022-08-14T04:07:11.113Z,100140
2022-08-14T04:09:11.531Z,100140
2022-08-14T04:11:12.567Z,100140
2022-08-14T04:13:13.304Z,100140
2022-08-14T04:15:12.919Z,100140
2022-08-14T04:17:13.402Z,100140
2022-08-14T04:19:13.982Z,100140
2022-08-14T04:21:16.749Z,100140
2022-08-14T04:23:18.448Z,100140
2022-08-14T04:25:15.635Z,100140
2022-08-14T04:27:17.090Z,100140
2022-08-14T04:29:16.673Z,100140
2022-08-14T04:32:56.664Z,100140
2022-08-14T04:33:20.927Z,100140
2022-08-14T04:35:23.416Z,100140
2022-08-14T04:37:24.933Z,100140
2022-08-14T04:39:19.458Z,100140
2022-08-14T04:41:20.040Z,100140
2022-08-14T04:43:20.887Z,100140
2022-08-14T04:45:22.538Z,100140
2022-08-14T04:47:21.726Z,100140
2022-08-14T04:49:22.623Z,100140
2022-08-14T04:51:23.108Z,100140
2022-08-14T04:53:26.507Z,100140
2022-08-14T04:55:24.257Z,100140
2022-08-14T04:57:24.873Z,100140
2022-08-14T04:59:25.550Z,100140
2022-08-14T05:01:26.644Z,100140
2022-08-14T05:03:28.741Z,100140
2022-08-14T05:05:27.363Z,100140
2022-08-14T05:07:46.674Z,100140
2022-08-14T05:09:30.716Z,100140
2022-08-14T05:11:29.311Z,100140
2022-08-14T05:13:38.364Z,100140
2022-08-14T05:15:32.222Z,100140
2022-08-14T05:17:43.665Z,100140
2022-08-14T05:19:32.890Z,100140
2022-08-14T05:21:59.260Z,100140
2022-08-14T05:23:37.333Z,100140
2022-08-14T05:25:34.481Z,100140
2022-08-14T05:27:34.608Z,100140
2022-08-14T05:29:35.319Z,100140
2022-08-14T05:31:39.555Z,100140
2022-08-14T05:33:37.020Z,100140
2022-08-14T05:35:37.420Z,100140
2022-08-14T05:37:38.156Z,100140
2022-08-14T05:39:39.115Z,100140
2022-08-14T05:41:53.905Z,100140
2022-08-14T05:43:41.947Z,100140
2022-08-14T05:45:41.689Z,100140
2022-08-14T05:47:41.773Z,100140
2022-08-14T05:49:42.587Z,100140
2022-08-14T05:51:43.065Z,100140
2022-08-14T05:53:44.043Z,100140
2022-08-14T05:55:44.492Z,100140
2022-08-14T05:57:46.815Z,100140
2022-08-14T05:59:45.858Z,100140
2022-08-14T06:01:46.818Z,100140
2022-08-14T06:03:47.384Z,100140
2022-08-14T06:05:52.007Z,100140
2022-08-14T06:07:48.782Z,100130
2022-08-14T06:09:52.150Z,100130
2022-08-14T06:11:50.211Z,100130
2022-08-14T06:13:51.091Z,100130
2022-08-14T06:15:51.680Z,100130
2022-08-14T06:17:55.885Z,100130
2022-08-14T06:19:53.560Z,100130
2022-08-14T06:21:58.468Z,100130
2022-08-14T06:23:54.551Z,100130
2022-08-14T06:25:55.293Z,100130
2022-08-14T06:27:58.214Z,100130
2022-08-14T06:29:56.736Z,100130
2022-08-14T06:32:00.112Z,100120
2022-08-14T06:35:09.492Z,100120
2022-08-14T06:35:59.033Z,100120
2022-08-14T06:38:00.327Z,100120
2022-08-14T06:40:00.561Z,100120
2022-08-14T06:42:01.108Z,100120
2022-08-14T06:44:02.687Z,100120
2022-08-14T06:46:03.173Z,100120
2022-08-14T06:48:05.967Z,100120
2022-08-14T06:50:06.672Z,100130
2022-08-14T06:52:04.896Z,100130
2022-08-14T06:54:05.657Z,100130
2022-08-14T06:56:06.680Z,100130
2022-08-14T06:58:24.874Z,100130
2022-08-14T07:00:22.212Z,100120
2022-08-14T07:02:13.365Z,100120
2022-08-14T07:04:18.899Z,100120
2022-08-14T07:06:21.587Z,100120
2022-08-14T07:08:12.445Z,100120
2022-08-14T07:10:13.411Z,100120
2022-08-14T07:12:35.001Z,100120
2022-08-14T07:14:13.114Z,100120
2022-08-14T07:16:13.925Z,100120
2022-08-14T07:18:14.436Z,100120
2022-08-14T07:20:15.269Z,100120
2022-08-14T07:22:17.459Z,100120
2022-08-14T07:24:22.116Z,100120
2022-08-14T07:26:17.482Z,100120
2022-08-14T07:28:21.344Z,100120
2022-08-14T07:30:33.835Z,100120
2022-08-14T07:32:22.150Z,100120
2022-08-14T07:34:36.212Z,100120
2022-08-14T07:36:30.308Z,100120
2022-08-14T07:38:22.885Z,100120
2022-08-14T07:40:27.626Z,100120
2022-08-14T07:42:22.894Z,100120
2022-08-14T07:44:32.644Z,100130
2022-08-14T07:46:29.329Z,100130
2022-08-14T07:48:25.622Z,100130
2022-08-14T07:50:25.813Z,100130
2022-08-14T07:52:31.050Z,100130
2022-08-14T07:54:29.927Z,100130
2022-08-14T07:56:48.338Z,100130
2022-08-14T07:58:33.853Z,100130
2022-08-14T08:00:33.448Z,100130
2022-08-14T08:02:30.698Z,100130
2022-08-14T08:04:34.065Z,100130
2022-08-14T08:06:30.998Z,100130
2022-08-14T08:08:31.693Z,100130
2022-08-14T08:11:01.267Z,100130
2022-08-14T08:12:33.624Z,100130
2022-08-14T08:14:33.946Z,100130
2022-08-14T08:16:33.914Z,100130
2022-08-14T08:18:36.199Z,100130
2022-08-14T08:20:37.975Z,100130
2022-08-14T08:22:35.394Z,100130
2022-08-14T08:24:36.026Z,100130
2022-08-14T08:26:36.512Z,100130
2022-08-14T08:28:37.180Z,100130
2022-08-14T08:30:49.329Z,100130
2022-08-14T08:32:40.130Z,100130
2022-08-14T08:34:46.100Z,100130
2022-08-14T08:36:40.111Z,100120
2022-08-14T08:39:17.146Z,100120
2022-08-14T08:40:42.854Z,100120
2022-08-14T08:42:44.849Z,100120
2022-08-14T08:44:41.804Z,100120
2022-08-14T08:46:43.532Z,100120
2022-08-14T08:48:53.573Z,100120
2022-08-14T08:50:43.966Z,100120
2022-08-14T08:52:51.424Z,100120
2022-08-14T08:54:53.263Z,100120
2022-08-14T08:56:47.563Z,100120
2022-08-14T08:58:45.942Z,100120
2022-08-14T09:00:49.181Z,100120
2022-08-14T09:02:53.685Z,100120
2022-08-14T09:04:53.527Z,100120
2022-08-14T09:07:09.130Z,100120
2022-08-14T09:08:48.827Z,100120
2022-08-14T09:10:52.450Z,100120
2022-08-14T09:12:51.746Z,100120
2022-08-14T09:14:50.827Z,100120
2022-08-14T09:16:51.915Z,100120
2022-08-14T09:18:53.426Z,100120
2022-08-14T09:20:54.847Z,100120
2022-08-14T09:22:55.134Z,100120
2022-08-14T09:24:54.488Z,100120
2022-08-14T09:26:54.082Z,100120
2022-08-14T09:28:54.653Z,100120
2022-08-14T09:30:57.712Z,100120
2022-08-14T09:33:23.189Z,100110
2022-08-14T09:35:08.694Z,100110
2022-08-14T09:37:15.140Z,100110
2022-08-14T09:39:10.621Z,100110
2022-08-14T09:41:03.444Z,100110
2022-08-14T09:43:10.546Z,100110
2022-08-14T09:45:12.145Z,100110
2022-08-14T09:46:59.900Z,100110
2022-08-14T09:49:01.592Z,100100
2022-08-14T09:53:04.887Z,100100
2022-08-14T09:55:02.817Z,100100
2022-08-14T09:57:02.744Z,100100
2022-08-14T09:59:11.693Z,100100
2022-08-14T10:01:09.191Z,100100
2022-08-14T10:03:05.724Z,100100
2022-08-14T10:05:08.589Z,100100
2022-08-14T10:07:06.142Z,100100
2022-08-14T10:09:05.941Z,100100
2022-08-14T10:11:13.772Z,100100
2022-08-14T10:13:19.786Z,100100
2022-08-14T10:15:16.095Z,100100
2022-08-14T10:17:08.834Z,100100
2022-08-14T10:19:11.078Z,100100
2022-08-14T10:21:16.169Z,100100
2022-08-14T10:23:16.166Z,100100
2022-08-14T10:25:13.643Z,100100
2022-08-14T10:27:15.048Z,100100
2022-08-14T10:29:19.605Z,100100
2022-08-14T10:31:25.460Z,100100
2022-08-14T10:33:23.756Z,100100
2022-08-14T10:35:15.254Z,100100
2022-08-14T10:37:17.139Z,100100
2022-08-14T10:39:17.764Z,100100
2022-08-14T10:41:16.674Z,100100
2022-08-14T10:43:18.308Z,100100
2022-08-14T10:45:17.992Z,100100
2022-08-14T10:47:40.161Z,100100
2022-08-14T10:49:19.582Z,100100
2022-08-14T10:51:24.525Z,100090
2022-08-14T10:53:35.209Z,100090
2022-08-14T10:55:21.211Z,100090
2022-08-14T10:57:21.994Z,100090
2022-08-14T10:59:20.699Z,100090
2022-08-14T11:01:30.131Z,100090
2022-08-14T11:03:36.117Z,100100
2022-08-14T11:05:25.019Z,100100
2022-08-14T11:07:22.780Z,100100
2022-08-14T11:09:23.427Z,100100
2022-08-14T11:11:25.749Z,100100
2022-08-14T11:13:27.354Z,100100
2022-08-14T11:15:27.783Z,100100
2022-08-14T11:17:26.189Z,100100
2022-08-14T11:19:26.615Z,100100
2022-08-14T11:21:30.299Z,100100
2022-08-14T11:23:38.309Z,100100
2022-08-14T11:25:43.911Z,100100
2022-08-14T11:27:33.419Z,100100
2022-08-14T11:29:30.130Z,100100
2022-08-14T11:31:38.806Z,100100
2022-08-14T11:33:30.573Z,100100
2022-08-14T11:35:44.168Z,100090
2022-08-14T11:37:38.112Z,100090
2022-08-14T11:39:35.105Z,100090
2022-08-14T11:41:34.385Z,100090
2022-08-14T11:43:38.832Z,100090
2022-08-14T11:45:37.125Z,100090
2022-08-14T11:47:44.080Z,100090
2022-08-14T11:49:35.011Z,100090
2022-08-14T11:51:50.843Z,100090
2022-08-14T11:53:35.914Z,100090
2022-08-14T11:55:39.133Z,100080
2022-08-14T11:57:37.064Z,100080
2022-08-14T11:59:38.509Z,100080
2022-08-14T12:01:38.239Z,100080
2022-08-14T12:03:46.273Z,100080
2022-08-14T12:05:39.931Z,100080
2022-08-14T12:07:48.690Z,100080
2022-08-14T12:09:43.132Z,100080
2022-08-14T12:11:43.910Z,100080
2022-08-14T12:13:44.427Z,100080
2022-08-14T12:15:44.697Z,100070
2022-08-14T12:17:49.410Z,100070
2022-08-14T12:19:45.565Z,100070
2022-08-14T12:21:50.538Z,100070
2022-08-14T12:23:45.652Z,100070
2022-08-14T12:25:45.174Z,100070
2022-08-14T12:27:47.206Z,100070
2022-08-14T12:29:53.573Z,100070
2022-08-14T12:31:58.392Z,100070
2022-08-14T12:34:03.004Z,100070
2022-08-14T12:35:48.034Z,100070
2022-08-14T12:37:49.767Z,100070
2022-08-14T12:39:49.047Z,100070
2022-08-14T12:41:53.727Z,100070
2022-08-14T12:43:51.957Z,100060
2022-08-14T12:45:53.939Z,100060
2022-08-14T12:47:59.630Z,100060
2022-08-14T12:49:53.304Z,100060
2022-08-14T12:51:56.857Z,100060
2022-08-14T12:53:54.376Z,100060
2022-08-14T12:56:17.839Z,100060
2022-08-14T12:57:57.800Z,100060
2022-08-14T13:00:22.687Z,100060
2022-08-14T13:02:00.039Z,100060
2022-08-14T13:04:06.666Z,100060
2022-08-14T13:05:56.522Z,100060
2022-08-14T13:07:59.136Z,100060
2022-08-14T13:09:57.601Z,100060
2022-08-14T13:12:32.576Z,100060
2022-08-14T13:13:59.112Z,100060
2022-08-14T13:16:00.169Z,100060
2022-08-14T13:18:01.461Z,100060
2022-08-14T13:20:02.127Z,100060
2022-08-14T13:22:09.430Z,100060
2022-08-14T13:24:03.265Z,100060
2022-08-14T13:26:02.819Z,100060
2022-08-14T13:28:03.483Z,100060
2022-08-14T13:30:10.423Z,100060
2022-08-14T13:32:05.498Z,100060
2022-08-14T13:34:05.307Z,100060
2022-08-14T13:36:05.536Z,100060
2022-08-14T13:38:05.500Z,100060
2022-08-14T13:40:07.023Z,100060
2022-08-14T13:42:08.321Z,100060
2022-08-14T13:44:07.883Z,100060
2022-08-14T13:46:07.546Z,100060
2022-08-14T13:48:08.094Z,100050
2022-08-14T13:50:12.059Z,100050
2022-08-14T13:52:48.780Z,100050
2022-08-14T13:54:14.116Z,100050
2022-08-14T13:56:14.788Z,100050
2022-08-14T13:58:33.659Z,100050
2022-08-14T14:00:13.784Z,100050
2022-08-14T14:02:13.651Z,100050
2022-08-14T14:04:17.894Z,100050
2022-08-14T14:06:14.283Z,100050
2022-08-14T14:08:19.017Z,100050
2022-08-14T14:10:16.208Z,100050
2022-08-14T14:12:38.453Z,100050
2022-08-14T14:14:44.467Z,100050
2022-08-14T14:16:26.079Z,100040
2022-08-14T14:18:33.839Z,100040
2022-08-14T14:20:35.208Z,100040
2022-08-14T14:23:00.927Z,100040
2022-08-14T14:24:18.028Z,100040
2022-08-14T14:26:23.003Z,100040
2022-08-14T14:28:23.825Z,100040
2022-08-14T14:30:52.751Z,100040
2022-08-14T14:32:29.342Z,100040
2022-08-14T14:34:29.371Z,100040
2022-08-14T14:36:24.160Z,100040
2022-08-14T14:38:22.450Z,100040
2022-08-14T14:40:53.788Z,100040
2022-08-14T14:42:32.048Z,100040
2022-08-14T14:44:26.849Z,100040
2022-08-14T14:46:36.342Z,100040
2022-08-14T14:48:27.093Z,100040
2022-08-14T14:50:24.882Z,100040
2022-08-14T14:52:27.480Z,100040
2022-08-14T14:54:30.910Z,100040
2022-08-14T14:56:50.337Z,100040
2022-08-14T14:58:29.423Z,100040
2022-08-14T15:00:30.921Z,100040
2022-08-14T15:02:34.150Z,100040
2022-08-14T15:04:28.561Z,100040
2022-08-14T15:06:30.482Z,100030
2022-08-14T15:08:56.978Z,100030
2022-08-14T15:10:34.226Z,100030
2022-08-14T15:12:55.012Z,100030
2022-08-14T15:14:55.530Z,100030
2022-08-14T15:16:32.070Z,100030
2022-08-14T15:18:37.898Z,100030
2022-08-14T15:20:32.886Z,100030
2022-08-14T15:22:34.604Z,100030
2022-08-14T15:24:33.735Z,100030
2022-08-14T15:26:34.223Z,100030
2022-08-14T15:28:38.713Z,100030
2022-08-14T15:30:37.653Z,100030
2022-08-14T15:32:35.922Z,100030
2022-08-14T15:34:51.164Z,100030
2022-08-14T15:36:37.076Z,100030
2022-08-14T15:38:41.039Z,100030
2022-08-14T15:40:41.216Z,100030
2022-08-14T15:42:38.346Z,100030
2022-08-14T15:44:43.918Z,100030
2022-08-14T15:46:43.439Z,100030
2022-08-14T15:48:43.864Z,100030
2022-08-14T15:50:40.310Z,100030
2022-08-14T15:52:40.935Z,100030
2022-08-14T15:54:41.396Z,100030
2022-08-14T15:56:42.762Z,100030
2022-08-14T15:58:42.603Z,100030
2022-08-14T16:00:49.954Z,100030
2022-08-14T16:02:43.593Z,100030
2022-08-14T16:04:44.431Z,100030
2022-08-14T16:06:44.820Z,100030
2022-08-14T16:08:50.046Z,100030
2022-08-14T16:10:45.580Z,100030
2022-08-14T16:12:47.889Z,100030
2022-08-14T16:14:46.457Z,100030
2022-08-14T16:16:51.265Z,100030
2022-08-14T16:18:48.871Z,100030
2022-08-14T16:20:51.119Z,100030
2022-08-14T16:25:00.468Z,100030
2022-08-14T16:26:51.665Z,100030
2022-08-14T16:28:50.871Z,100030
2022-08-14T16:30:52.659Z,100030
2022-08-14T16:32:55.462Z,100030
2022-08-14T16:34:54.848Z,100030
2022-08-14T16:36:53.244Z,100040
2022-08-14T16:38:54.432Z,100040
2022-08-14T16:40:24.057Z,100030
2022-08-14T16:40:54.733Z,100040
2022-08-14T16:43:12.726Z,100040
2022-08-14T16:44:54.566Z,100040
2022-08-14T16:46:57.571Z,100040
2022-08-14T16:48:57.698Z,100040
2022-08-14T16:50:55.493Z,100040
2022-08-14T16:53:00.831Z,100040
2022-08-14T16:54:56.525Z,100040
2022-08-14T16:57:12.261Z,100040
2022-08-14T16:59:08.979Z,100040
2022-08-14T17:01:22.484Z,100040
2022-08-14T17:03:00.896Z,100040
2022-08-14T17:05:15.369Z,100040
2022-08-14T17:07:01.164Z,100040
2022-08-14T17:09:00.193Z,100050
2022-08-14T17:11:09.769Z,100050
2022-08-14T17:13:16.293Z,100050
2022-08-14T17:15:10.034Z,100050
2022-08-14T17:17:02.039Z,100050
2022-08-14T17:19:02.781Z,100050
2022-08-14T17:21:19.370Z,100060
2022-08-14T17:23:03.288Z,100060
2022-08-14T17:25:04.484Z,100060
2022-08-14T17:27:05.586Z,100060
2022-08-14T17:29:07.250Z,100060
2022-08-14T17:31:05.153Z,100060
2022-08-14T17:33:12.005Z,100060
2022-08-14T17:35:07.171Z,100060
2022-08-14T17:37:06.518Z,100060
2022-08-14T17:39:08.933Z,100060
2022-08-14T17:41:19.038Z,100060
2022-08-14T17:43:07.769Z,100060
2022-08-14T17:45:08.176Z,100060
2022-08-14T17:47:08.691Z,100060
2022-08-14T17:49:16.916Z,100060
2022-08-14T17:51:09.556Z,100060
2022-08-14T17:53:11.024Z,100060
2022-08-14T17:56:01.183Z,100060
2022-08-14T17:57:13.261Z,100060
2022-08-14T17:59:12.512Z,100060
2022-08-14T18:01:13.029Z,100060
2022-08-14T18:03:18.348Z,100060
2022-08-14T18:05:12.482Z,100060
2022-08-14T18:07:50.586Z,100060
2022-08-14T18:09:25.247Z,100060
2022-08-14T18:11:15.263Z,100060
2022-08-14T18:13:14.379Z,100060
2022-08-14T18:15:16.431Z,100060
2022-08-14T18:17:16.016Z,100060
2022-08-14T18:19:16.829Z,100060
2022-08-14T18:21:41.927Z,100060
2022-08-14T18:23:16.189Z,100060
2022-08-14T18:25:19.110Z,100070
2022-08-14T18:27:22.997Z,100070
2022-08-14T18:29:20.030Z,100070
2022-08-14T18:31:42.024Z,100070
2022-08-14T18:33:20.928Z,100070
2022-08-14T18:35:20.783Z,100060
2022-08-14T18:37:20.149Z,100060
2022-08-14T18:39:30.851Z,100060
2022-08-14T18:41:37.528Z,100060
2022-08-14T18:43:43.408Z,100060
2022-08-14T18:45:28.882Z,100060
2022-08-14T18:47:21.632Z,100060
2022-08-14T18:49:21.426Z,100060
2022-08-14T18:51:24.948Z,100070
2022-08-14T18:53:25.048Z,100070
2022-08-14T18:55:53.086Z,100070
2022-08-14T18:57:22.901Z,100070
2022-08-14T18:59:36.245Z,100070
2022-08-14T19:01:26.158Z,100070
2022-08-14T19:03:44.183Z,100070
2022-08-14T19:05:54.872Z,100070
2022-08-14T19:07:25.135Z,100070
2022-08-14T19:09:54.508Z,100070
2022-08-14T19:11:44.209Z,100070
2022-08-14T19:13:48.478Z,100070
2022-08-14T19:15:28.401Z,100070
2022-08-14T19:17:43.490Z,100070
2022-08-14T19:19:37.707Z,100070
2022-08-14T19:21:30.118Z,100070
2022-08-14T19:23:40.596Z,100070
2022-08-14T19:25:47.480Z,100070
2022-08-14T19:27:37.551Z,100070
2022-08-14T19:29:36.021Z,100070
2022-08-14T19:31:42.184Z,100070
2022-08-14T19:33:48.873Z,100070
2022-08-14T19:35:54.964Z,100070
2022-08-14T19:37:46.769Z,100070
2022-08-14T19:39:47.989Z,100070
2022-08-14T19:41:33.939Z,100070
2022-08-14T19:43:56.022Z,100070
2022-08-14T19:45:33.893Z,100070
2022-08-14T19:47:38.875Z,100070
2022-08-14T19:50:08.058Z,100070
2022-08-14T19:51:41.732Z,100070
2022-08-14T19:53:33.452Z,100070
2022-08-14T19:55:34.664Z,100070
2022-08-14T19:57:34.102Z,100070
2022-08-14T19:59:36.612Z,100070
2022-08-14T20:01:38.114Z,100070
2022-08-14T20:03:59.777Z,100070
2022-08-14T20:05:45.678Z,100070
2022-08-14T20:07:59.820Z,100070
2022-08-14T20:11:08.564Z,100080
2022-08-14T20:12:00.509Z,100080
2022-08-14T20:13:36.906Z,100080
2022-08-14T20:15:46.813Z,100080
2022-08-14T20:17:40.467Z,100080
2022-08-14T20:19:41.787Z,100080
2022-08-14T20:21:38.764Z,100080
2022-08-14T20:23:38.958Z,100080
2022-08-14T20:25:55.902Z,100080
2022-08-14T20:27:40.249Z,100080
2022-08-14T20:29:40.797Z,100080
2022-08-14T20:31:40.083Z,100080
2022-08-14T20:34:03.473Z,100080
2022-08-14T20:35:42.727Z,100080
2022-08-14T20:37:41.189Z,100080
2022-08-14T20:39:44.892Z,100080
2022-08-14T20:41:43.700Z,100080
2022-08-14T20:43:42.121Z,100080
2022-08-14T20:45:46.086Z,100090
2022-08-14T20:47:48.388Z,100090
2022-08-14T20:49:43.366Z,100090
2022-08-14T20:51:54.781Z,100090
2022-08-14T20:53:54.777Z,100090
2022-08-14T20:55:45.314Z,100090
2022-08-14T20:57:44.583Z,100090
2022-08-14T20:59:46.749Z,100100
2022-08-14T21:01:48.217Z,100100
2022-08-14T21:03:57.166Z,100100
2022-08-14T21:05:46.539Z,100100
2022-08-14T21:07:50.211Z,100100
2022-08-14T21:10:06.282Z,100100
2022-08-14T21:11:47.145Z,100100
2022-08-14T21:14:20.585Z,100100
2022-08-14T21:15:57.915Z,100100
2022-08-14T21:17:48.472Z,100100
2022-08-14T21:19:50.596Z,100100
2022-08-14T21:21:54.726Z,100100
2022-08-14T21:23:54.657Z,100100
2022-08-14T21:25:49.759Z,100100
2022-08-14T21:27:57.101Z,100100
2022-08-14T21:29:56.038Z,100100
2022-08-14T21:31:55.966Z,100100
2022-08-14T21:33:56.479Z,100100
2022-08-14T21:35:54.771Z,100100
2022-08-14T21:37:51.847Z,100100
2022-08-14T21:39:57.124Z,100100
2022-08-14T21:41:58.901Z,100100
2022-08-14T21:43:55.131Z,100100
2022-08-14T21:45:55.784Z,100100
2022-08-14T21:47:53.270Z,100100
2022-08-14T21:49:53.598Z,100100
2022-08-14T21:51:58.826Z,100100
2022-08-14T21:53:58.817Z,100100
2022-08-14T21:55:55.154Z,100100
2022-08-14T21:58:43.559Z,100110
2022-08-14T21:59:57.533Z,100110
2022-08-14T22:02:00.627Z,100110
2022-08-14T22:03:57.383Z,100110
2022-08-14T22:05:56.649Z,100110
2022-08-14T22:07:56.786Z,100110
2022-08-14T22:09:56.666Z,100110
2022-08-14T22:11:57.193Z,100110
2022-08-14T22:14:02.363Z,100110
2022-08-14T22:15:59.900Z,100110
2022-08-14T22:17:58.649Z,100110
2022-08-14T22:19:58.337Z,100110
2022-08-14T22:21:58.585Z,100110
2022-08-14T22:23:59.105Z,100110
2022-08-14T22:25:59.304Z,100110
2022-08-14T22:28:00.027Z,100110
2022-08-14T22:30:01.112Z,100110
2022-08-14T22:32:00.215Z,100110
2022-08-14T22:34:01.172Z,100110
2022-08-14T22:36:02.395Z,100110
2022-08-14T22:38:01.811Z,100110
2022-08-14T22:40:51.538Z,100110
2022-08-14T22:42:01.923Z,100110
2022-08-14T22:44:06.660Z,100110
2022-08-14T22:46:03.144Z,100110
2022-08-14T22:48:03.254Z,100110
2022-08-14T22:50:31.508Z,100110
2022-08-14T22:52:31.891Z,100110
2022-08-14T22:54:04.574Z,100110
2022-08-14T22:56:04.385Z,100120
2022-08-14T22:58:04.198Z,100120
2022-08-14T23:00:14.165Z,100120
2022-08-14T23:02:11.751Z,100120
2022-08-14T23:04:06.109Z,100120
2022-08-14T23:07:02.515Z,100120
2022-08-14T23:08:58.491Z,100120
2022-08-14T23:10:34.016Z,100120
2022-08-14T23:12:27.985Z,100120
2022-08-14T23:14:06.699Z,100120
2022-08-14T23:16:06.880Z,100120
2022-08-14T23:18:07.084Z,100120
2022-08-14T23:20:19.185Z,100120
2022-08-14T23:22:09.338Z,100120
2022-08-14T23:24:08.395Z,100120
2022-08-14T23:26:48.773Z,100120
2022-08-14T23:28:33.346Z,100120
2022-08-14T23:30:10.898Z,100120
2022-08-14T23:32:18.634Z,100130
2022-08-14T23:34:12.583Z,100130
2022-08-14T23:36:31.763Z,100130
2022-08-14T23:38:30.059Z,100130
2022-08-14T23:40:29.746Z,100130
2022-08-14T23:42:10.577Z,100130
2022-08-14T23:44:11.861Z,100130
2022-08-14T23:46:12.971Z,100130
2022-08-14T23:48:13.704Z,100130
2022-08-14T23:50:34.374Z,100130
2022-08-14T23:53:06.792Z,100140
2022-08-14T23:54:49.140Z,100140
2022-08-14T23:56:18.310Z,100140
2022-08-14T23:58:29.015Z,100140
